Terminal Aerodrome Forecast
Issued by NWS Louisville, KY

Home | Current Version | Previous Version | Text Only | Print | Product List | Glossary On
Versions: 1 2 3 4 5 6 7 8 9 10 11 12 13 14 15 16
000
FTUS43 KLMK 291938 AAA
TAFLEX
TAF AMD
KLEX 291938Z 2920/3018 20009KT P6SM -SHRA VCTS BKN035CB
      TEMPO 2920/2921 4SM -TSRA BR BKN035CB
     FM292300 18005KT P6SM SCT040 SCT250
     FM301500 22006KT P6SM SCT040 BKN150=

USA.gov is the U.S. government's official web portal to all federal, state and local government web resources and services.